sensor_id;sensor_type;location;lat;lon;timestamp;temperature;humidity
16771;DHT22;8503;52.472;13.344;2023-08-31T00:00:42;15.28;84.62
16771;DHT22;8503;52.472;13.344;2023-08-31T00:01:26;15.28;84.80
16771;DHT22;8503;52.472;13.344;2023-08-31T00:02:09;15.28;84.80
16771;DHT22;8503;52.472;13.344;2023-08-31T00:02:52;15.29;84.84
16771;DHT22;8503;52.472;13.344;2023-08-31T00:03:36;15.31;84.80
16771;DHT22;8503;52.472;13.344;2023-08-31T00:04:19;15.30;84.77
16771;DHT22;8503;52.472;13.344;2023-08-31T00:05:03;15.30;84.77
16771;DHT22;8503;52.472;13.344;2023-08-31T00:05:47;15.32;84.76
16771;DHT22;8503;52.472;13.344;2023-08-31T00:06:33;15.33;84.77
16771;DHT22;8503;52.472;13.344;2023-08-31T00:07:16;15.33;84.74
16771;DHT22;8503;52.472;13.344;2023-08-31T00:07:59;15.32;84.70
16771;DHT22;8503;52.472;13.344;2023-08-31T00:08:42;15.29;84.68
16771;DHT22;8503;52.472;13.344;2023-08-31T00:09:26;15.27;84.83
16771;DHT22;8503;52.472;13.344;2023-08-31T00:10:11;15.27;84.78
16771;DHT22;8503;52.472;13.344;2023-08-31T00:10:58;15.28;84.83
16771;DHT22;8503;52.472;13.344;2023-08-31T00:11:43;15.25;84.78
16771;DHT22;8503;52.472;13.344;2023-08-31T00:12:25;15.23;84.81
16771;DHT22;8503;52.472;13.344;2023-08-31T00:13:09;15.24;84.84
16771;DHT22;8503;52.472;13.344;2023-08-31T00:13:54;15.22;84.89
16771;DHT22;8503;52.472;13.344;2023-08-31T00:14:37;15.19;85.03
16771;DHT22;8503;52.472;13.344;2023-08-31T00:15:20;15.21;85.03
16771;DHT22;8503;52.472;13.344;2023-08-31T00:16:03;15.19;85.11
16771;DHT22;8503;52.472;13.344;2023-08-31T00:16:47;15.19;85.08
16771;DHT22;8503;52.472;13.344;2023-08-31T00:17:31;15.22;85.22
16771;DHT22;8503;52.472;13.344;2023-08-31T00:18:14;15.21;85.29
16771;DHT22;8503;52.472;13.344;2023-08-31T00:18:59;15.24;85.22
16771;DHT22;8503;52.472;13.344;2023-08-31T00:19:43;15.25;85.13
16771;DHT22;8503;52.472;13.344;2023-08-31T00:20:26;15.25;85.13
16771;DHT22;8503;52.472;13.344;2023-08-31T00:21:12;15.22;84.92
16771;DHT22;8503;52.472;13.344;2023-08-31T00:21:54;15.24;85.09
16771;DHT22;8503;52.472;13.344;2023-08-31T00:22:37;15.24;84.95
16771;DHT22;8503;52.472;13.344;2023-08-31T00:23:21;15.26;84.99
16771;DHT22;8503;52.472;13.344;2023-08-31T00:24:05;15.26;85.12
16771;DHT22;8503;52.472;13.344;2023-08-31T00:24:48;15.25;85.06
16771;DHT22;8503;52.472;13.344;2023-08-31T00:25:32;15.29;85.07
16771;DHT22;8503;52.472;13.344;2023-08-31T00:26:17;15.27;85.03
16771;DHT22;8503;52.472;13.344;2023-08-31T00:26:59;15.30;85.02
16771;DHT22;8503;52.472;13.344;2023-08-31T00:27:45;15.30;85.01
16771;DHT22;8503;52.472;13.344;2023-08-31T00:28:30;15.31;85.02
16771;DHT22;8503;52.472;13.344;2023-08-31T00:29:14;15.30;84.83
16771;DHT22;8503;52.472;13.344;2023-08-31T00:29:58;15.29;85.00
16771;DHT22;8503;52.472;13.344;2023-08-31T00:30:41;15.29;84.97
16771;DHT22;8503;52.472;13.344;2023-08-31T00:31:26;15.27;84.98
16771;DHT22;8503;52.472;13.344;2023-08-31T00:32:12;15.27;84.97
16771;DHT22;8503;52.472;13.344;2023-08-31T00:32:55;15.25;85.05
16771;DHT22;8503;52.472;13.344;2023-08-31T00:33:41;15.28;85.09
16771;DHT22;8503;52.472;13.344;2023-08-31T00:34:25;15.29;85.06
16771;DHT22;8503;52.472;13.344;2023-08-31T00:35:09;15.31;84.93
16771;DHT22;8503;52.472;13.344;2023-08-31T00:35:52;15.30;84.94
16771;DHT22;8503;52.472;13.344;2023-08-31T00:36:37;15.28;85.06
16771;DHT22;8503;52.472;13.344;2023-08-31T00:37:20;15.28;85.13
16771;DHT22;8503;52.472;13.344;2023-08-31T00:38:03;15.27;85.19
16771;DHT22;8503;52.472;13.344;2023-08-31T00:38:47;15.25;85.32
16771;DHT22;8503;52.472;13.344;2023-08-31T00:39:31;15.24;85.34
16771;DHT22;8503;52.472;13.344;2023-08-31T00:40:16;15.26;85.30
16771;DHT22;8503;52.472;13.344;2023-08-31T00:41:00;15.26;85.29
16771;DHT22;8503;52.472;13.344;2023-08-31T00:41:45;15.27;85.27
16771;DHT22;8503;52.472;13.344;2023-08-31T00:42:28;15.25;85.40
16771;DHT22;8503;52.472;13.344;2023-08-31T00:43:13;15.28;85.26
16771;DHT22;8503;52.472;13.344;2023-08-31T00:43:57;15.25;85.16
16771;DHT22;8503;52.472;13.344;2023-08-31T00:44:41;15.27;85.20
16771;DHT22;8503;52.472;13.344;2023-08-31T00:45:24;15.27;85.30
16771;DHT22;8503;52.472;13.344;2023-08-31T00:46:07;15.26;85.31
16771;DHT22;8503;52.472;13.344;2023-08-31T00:46:50;15.25;85.23
16771;DHT22;8503;52.472;13.344;2023-08-31T00:47:33;15.28;85.24
16771;DHT22;8503;52.472;13.344;2023-08-31T00:48:17;15.29;85.06
16771;DHT22;8503;52.472;13.344;2023-08-31T00:49:01;15.24;85.11
16771;DHT22;8503;52.472;13.344;2023-08-31T00:49:45;15.25;84.76
16771;DHT22;8503;52.472;13.344;2023-08-31T00:50:29;15.21;84.97
16771;DHT22;8503;52.472;13.344;2023-08-31T00:51:13;15.19;85.15
16771;DHT22;8503;52.472;13.344;2023-08-31T00:51:56;15.19;85.13
16771;DHT22;8503;52.472;13.344;2023-08-31T00:52:39;15.18;85.26
16771;DHT22;8503;52.472;13.344;2023-08-31T00:53:23;15.18;85.25
16771;DHT22;8503;52.472;13.344;2023-08-31T00:54:07;15.14;85.27
16771;DHT22;8503;52.472;13.344;2023-08-31T00:54:51;15.17;85.20
16771;DHT22;8503;52.472;13.344;2023-08-31T00:55:36;15.15;85.35
16771;DHT22;8503;52.472;13.344;2023-08-31T00:56:21;15.13;85.39
16771;DHT22;8503;52.472;13.344;2023-08-31T00:57:05;15.10;85.46
16771;DHT22;8503;52.472;13.344;2023-08-31T00:57:49;15.08;85.53
16771;DHT22;8503;52.472;13.344;2023-08-31T00:58:32;15.07;85.46
16771;DHT22;8503;52.472;13.344;2023-08-31T00:59:15;15.08;85.67
16771;DHT22;8503;52.472;13.344;2023-08-31T00:59:58;15.04;85.72
16771;DHT22;8503;52.472;13.344;2023-08-31T01:00:48;15.03;85.83
16771;DHT22;8503;52.472;13.344;2023-08-31T01:01:37;15.01;85.82
16771;DHT22;8503;52.472;13.344;2023-08-31T01:02:32;15.03;85.87
16771;DHT22;8503;52.472;13.344;2023-08-31T01:03:38;15.02;86.05
16771;DHT22;8503;52.472;13.344;2023-08-31T01:04:32;15.00;86.10
16771;DHT22;8503;52.472;13.344;2023-08-31T01:05:31;15.00;85.96
16771;DHT22;8503;52.472;13.344;2023-08-31T01:06:23;14.98;86.11
16771;DHT22;8503;52.472;13.344;2023-08-31T01:07:18;14.98;86.31
16771;DHT22;8503;52.472;13.344;2023-08-31T01:08:16;14.98;86.22
16771;DHT22;8503;52.472;13.344;2023-08-31T01:09:10;14.96;86.38
16771;DHT22;8503;52.472;13.344;2023-08-31T01:10:04;14.96;86.43
16771;DHT22;8503;52.472;13.344;2023-08-31T01:10:58;14.96;86.30
16771;DHT22;8503;52.472;13.344;2023-08-31T01:11:52;14.99;86.07
16771;DHT22;8503;52.472;13.344;2023-08-31T01:12:46;14.97;86.60
16771;DHT22;8503;52.472;13.344;2023-08-31T01:13:32;14.93;86.48
16771;DHT22;8503;52.472;13.344;2023-08-31T01:14:18;14.89;86.67
16771;DHT22;8503;52.472;13.344;2023-08-31T01:15:10;14.87;87.08
16771;DHT22;8503;52.472;13.344;2023-08-31T01:15:56;14.88;87.08
16771;DHT22;8503;52.472;13.344;2023-08-31T01:16:44;14.89;87.18
16771;DHT22;8503;52.472;13.344;2023-08-31T01:17:31;14.87;87.22
16771;DHT22;8503;52.472;13.344;2023-08-31T01:18:16;14.86;87.30
16771;DHT22;8503;52.472;13.344;2023-08-31T01:19:01;14.87;87.31
16771;DHT22;8503;52.472;13.344;2023-08-31T01:19:50;14.87;87.35
16771;DHT22;8503;52.472;13.344;2023-08-31T01:20:38;14.86;87.48
16771;DHT22;8503;52.472;13.344;2023-08-31T01:21:32;14.85;87.64
16771;DHT22;8503;52.472;13.344;2023-08-31T01:22:27;14.87;87.72
16771;DHT22;8503;52.472;13.344;2023-08-31T01:23:16;14.91;87.48
16771;DHT22;8503;52.472;13.344;2023-08-31T01:24:02;14.88;87.70
16771;DHT22;8503;52.472;13.344;2023-08-31T01:24:47;14.87;87.93
16771;DHT22;8503;52.472;13.344;2023-08-31T01:25:31;14.85;87.98
16771;DHT22;8503;52.472;13.344;2023-08-31T01:26:14;14.89;87.98
16771;DHT22;8503;52.472;13.344;2023-08-31T01:26:58;14.88;88.09
16771;DHT22;8503;52.472;13.344;2023-08-31T01:27:42;14.91;87.96
16771;DHT22;8503;52.472;13.344;2023-08-31T01:28:26;14.94;87.73
16771;DHT22;8503;52.472;13.344;2023-08-31T01:29:10;14.94;87.94
16771;DHT22;8503;52.472;13.344;2023-08-31T01:29:54;14.94;88.01
16771;DHT22;8503;52.472;13.344;2023-08-31T01:30:37;14.94;88.15
16771;DHT22;8503;52.472;13.344;2023-08-31T01:31:22;14.93;88.16
16771;DHT22;8503;52.472;13.344;2023-08-31T01:32:06;14.93;88.14
16771;DHT22;8503;52.472;13.344;2023-08-31T01:32:49;14.94;88.24
16771;DHT22;8503;52.472;13.344;2023-08-31T01:33:34;14.94;88.13
16771;DHT22;8503;52.472;13.344;2023-08-31T01:34:17;14.92;88.27
16771;DHT22;8503;52.472;13.344;2023-08-31T01:35:00;14.89;88.27
16771;DHT22;8503;52.472;13.344;2023-08-31T01:35:50;14.89;88.42
16771;DHT22;8503;52.472;13.344;2023-08-31T01:36:39;14.91;88.41
16771;DHT22;8503;52.472;13.344;2023-08-31T01:37:31;14.91;88.53
16771;DHT22;8503;52.472;13.344;2023-08-31T01:38:21;14.92;88.35
16771;DHT22;8503;52.472;13.344;2023-08-31T01:39:15;14.93;88.41
16771;DHT22;8503;52.472;13.344;2023-08-31T01:40:06;14.92;88.41
16771;DHT22;8503;52.472;13.344;2023-08-31T01:40:54;14.94;88.55
16771;DHT22;8503;52.472;13.344;2023-08-31T01:41:44;14.92;88.59
16771;DHT22;8503;52.472;13.344;2023-08-31T01:42:31;14.93;88.87
16771;DHT22;8503;52.472;13.344;2023-08-31T01:43:17;14.93;88.88
16771;DHT22;8503;52.472;13.344;2023-08-31T01:44:01;14.93;88.48
16771;DHT22;8503;52.472;13.344;2023-08-31T01:44:46;14.91;88.91
16771;DHT22;8503;52.472;13.344;2023-08-31T01:45:32;14.87;89.06
16771;DHT22;8503;52.472;13.344;2023-08-31T01:46:15;14.86;88.73
16771;DHT22;8503;52.472;13.344;2023-08-31T01:47:05;14.84;89.05
16771;DHT22;8503;52.472;13.344;2023-08-31T01:47:49;14.82;88.92
16771;DHT22;8503;52.472;13.344;2023-08-31T01:48:38;14.79;88.70
16771;DHT22;8503;52.472;13.344;2023-08-31T01:49:21;14.78;89.00
16771;DHT22;8503;52.472;13.344;2023-08-31T01:50:05;14.73;89.12
16771;DHT22;8503;52.472;13.344;2023-08-31T01:50:49;14.71;89.79
16771;DHT22;8503;52.472;13.344;2023-08-31T01:51:32;14.71;89.69
16771;DHT22;8503;52.472;13.344;2023-08-31T01:52:16;14.70;90.33
16771;DHT22;8503;52.472;13.344;2023-08-31T01:52:59;14.73;90.31
16771;DHT22;8503;52.472;13.344;2023-08-31T01:53:42;14.72;90.38
16771;DHT22;8503;52.472;13.344;2023-08-31T01:54:27;14.73;90.11
16771;DHT22;8503;52.472;13.344;2023-08-31T01:55:10;14.69;90.49
16771;DHT22;8503;52.472;13.344;2023-08-31T01:55:57;14.70;90.31
16771;DHT22;8503;52.472;13.344;2023-08-31T01:56:41;14.67;90.36
16771;DHT22;8503;52.472;13.344;2023-08-31T01:57:23;14.67;90.58
16771;DHT22;8503;52.472;13.344;2023-08-31T01:58:06;14.68;90.60
16771;DHT22;8503;52.472;13.344;2023-08-31T01:58:50;14.66;90.78
16771;DHT22;8503;52.472;13.344;2023-08-31T01:59:33;14.66;90.91
16771;DHT22;8503;52.472;13.344;2023-08-31T02:00:19;14.67;90.69
16771;DHT22;8503;52.472;13.344;2023-08-31T02:01:03;14.69;90.50
16771;DHT22;8503;52.472;13.344;2023-08-31T02:01:45;14.67;90.60
16771;DHT22;8503;52.472;13.344;2023-08-31T02:02:28;14.67;90.87
16771;DHT22;8503;52.472;13.344;2023-08-31T02:03:12;14.68;90.71
16771;DHT22;8503;52.472;13.344;2023-08-31T02:03:56;14.64;91.24
16771;DHT22;8503;52.472;13.344;2023-08-31T02:04:39;14.63;91.17
16771;DHT22;8503;52.472;13.344;2023-08-31T02:05:23;14.59;91.11
16771;DHT22;8503;52.472;13.344;2023-08-31T02:06:05;14.59;91.09
16771;DHT22;8503;52.472;13.344;2023-08-31T02:06:49;14.55;91.05
16771;DHT22;8503;52.472;13.344;2023-08-31T02:07:32;14.52;90.99
16771;DHT22;8503;52.472;13.344;2023-08-31T02:08:15;14.48;90.92
16771;DHT22;8503;52.472;13.344;2023-08-31T02:08:59;14.45;91.53
16771;DHT22;8503;52.472;13.344;2023-08-31T02:09:43;14.48;91.01
16771;DHT22;8503;52.472;13.344;2023-08-31T02:10:26;14.49;91.08
16771;DHT22;8503;52.472;13.344;2023-08-31T02:11:11;14.47;91.37
16771;DHT22;8503;52.472;13.344;2023-08-31T02:11:55;14.47;92.02
16771;DHT22;8503;52.472;13.344;2023-08-31T02:12:37;14.45;91.89
16771;DHT22;8503;52.472;13.344;2023-08-31T02:13:23;14.48;92.40
16771;DHT22;8503;52.472;13.344;2023-08-31T02:14:06;14.42;91.33
16771;DHT22;8503;52.472;13.344;2023-08-31T02:14:49;14.40;91.47
16771;DHT22;8503;52.472;13.344;2023-08-31T02:15:32;14.40;91.61
16771;DHT22;8503;52.472;13.344;2023-08-31T02:16:16;14.40;91.22
16771;DHT22;8503;52.472;13.344;2023-08-31T02:16:59;14.38;91.32
16771;DHT22;8503;52.472;13.344;2023-08-31T02:17:42;14.38;91.60
16771;DHT22;8503;52.472;13.344;2023-08-31T02:18:26;14.36;91.71
16771;DHT22;8503;52.472;13.344;2023-08-31T02:19:09;14.35;91.54
16771;DHT22;8503;52.472;13.344;2023-08-31T02:19:51;14.34;91.33
16771;DHT22;8503;52.472;13.344;2023-08-31T02:20:35;14.32;91.34
16771;DHT22;8503;52.472;13.344;2023-08-31T02:21:18;14.29;91.15
16771;DHT22;8503;52.472;13.344;2023-08-31T02:22:01;14.26;91.18
16771;DHT22;8503;52.472;13.344;2023-08-31T02:22:46;14.22;91.57
16771;DHT22;8503;52.472;13.344;2023-08-31T02:23:30;14.20;91.64
16771;DHT22;8503;52.472;13.344;2023-08-31T02:24:13;14.23;91.34
16771;DHT22;8503;52.472;13.344;2023-08-31T02:24:58;14.24;91.17
16771;DHT22;8503;52.472;13.344;2023-08-31T02:25:42;14.21;90.96
16771;DHT22;8503;52.472;13.344;2023-08-31T02:26:25;14.18;90.71
16771;DHT22;8503;52.472;13.344;2023-08-31T02:27:09;14.14;90.80
16771;DHT22;8503;52.472;13.344;2023-08-31T02:27:52;14.12;90.73
16771;DHT22;8503;52.472;13.344;2023-08-31T02:28:35;14.14;91.02
16771;DHT22;8503;52.472;13.344;2023-08-31T02:29:18;14.14;90.99
16771;DHT22;8503;52.472;13.344;2023-08-31T02:30:01;14.13;91.02
16771;DHT22;8503;52.472;13.344;2023-08-31T02:30:46;14.13;91.01
16771;DHT22;8503;52.472;13.344;2023-08-31T02:31:40;14.18;91.03
16771;DHT22;8503;52.472;13.344;2023-08-31T02:32:24;14.17;90.77
16771;DHT22;8503;52.472;13.344;2023-08-31T02:33:06;14.14;90.40
16771;DHT22;8503;52.472;13.344;2023-08-31T02:33:51;14.09;90.41
16771;DHT22;8503;52.472;13.344;2023-08-31T02:34:35;14.04;90.53
16771;DHT22;8503;52.472;13.344;2023-08-31T02:35:18;14.03;91.08
16771;DHT22;8503;52.472;13.344;2023-08-31T02:36:01;14.03;91.31
16771;DHT22;8503;52.472;13.344;2023-08-31T02:36:44;14.05;90.95
16771;DHT22;8503;52.472;13.344;2023-08-31T02:37:27;14.08;90.92
16771;DHT22;8503;52.472;13.344;2023-08-31T02:38:10;14.04;90.47
16771;DHT22;8503;52.472;13.344;2023-08-31T02:38:54;14.05;90.71
16771;DHT22;8503;52.472;13.344;2023-08-31T02:39:37;14.06;90.68
16771;DHT22;8503;52.472;13.344;2023-08-31T02:40:22;14.04;90.98
16771;DHT22;8503;52.472;13.344;2023-08-31T02:41:06;14.01;91.18
16771;DHT22;8503;52.472;13.344;2023-08-31T02:41:49;14.00;90.57
16771;DHT22;8503;52.472;13.344;2023-08-31T02:42:32;13.98;90.57
16771;DHT22;8503;52.472;13.344;2023-08-31T02:43:16;13.96;90.44
16771;DHT22;8503;52.472;13.344;2023-08-31T02:43:58;13.94;90.40
16771;DHT22;8503;52.472;13.344;2023-08-31T02:44:41;13.93;90.37
16771;DHT22;8503;52.472;13.344;2023-08-31T02:45:25;13.90;90.63
16771;DHT22;8503;52.472;13.344;2023-08-31T02:46:08;13.92;90.66
16771;DHT22;8503;52.472;13.344;2023-08-31T02:46:51;13.92;90.60
16771;DHT22;8503;52.472;13.344;2023-08-31T02:47:33;13.91;90.37
16771;DHT22;8503;52.472;13.344;2023-08-31T02:48:17;13.93;90.54
16771;DHT22;8503;52.472;13.344;2023-08-31T02:49:00;13.98;90.57
16771;DHT22;8503;52.472;13.344;2023-08-31T02:49:43;13.97;90.50
16771;DHT22;8503;52.472;13.344;2023-08-31T02:50:27;13.97;90.54
16771;DHT22;8503;52.472;13.344;2023-08-31T02:51:10;13.96;90.37
16771;DHT22;8503;52.472;13.344;2023-08-31T02:51:52;13.95;90.27
16771;DHT22;8503;52.472;13.344;2023-08-31T02:52:36;13.95;90.35
16771;DHT22;8503;52.472;13.344;2023-08-31T02:53:19;13.98;90.56
16771;DHT22;8503;52.472;13.344;2023-08-31T02:54:02;13.98;90.63
16771;DHT22;8503;52.472;13.344;2023-08-31T02:54:46;14.00;90.62
16771;DHT22;8503;52.472;13.344;2023-08-31T02:55:31;13.99;90.52
16771;DHT22;8503;52.472;13.344;2023-08-31T02:56:14;13.99;90.44
16771;DHT22;8503;52.472;13.344;2023-08-31T02:56:58;14.00;90.59
16771;DHT22;8503;52.472;13.344;2023-08-31T02:57:41;13.99;90.49
16771;DHT22;8503;52.472;13.344;2023-08-31T02:58:24;14.00;90.49
16771;DHT22;8503;52.472;13.344;2023-08-31T02:59:08;13.99;90.39
16771;DHT22;8503;52.472;13.344;2023-08-31T02:59:51;13.98;90.10
16771;DHT22;8503;52.472;13.344;2023-08-31T03:00:34;13.97;90.21
16771;DHT22;8503;52.472;13.344;2023-08-31T03:01:23;13.97;90.31
16771;DHT22;8503;52.472;13.344;2023-08-31T03:02:06;13.99;90.44
16771;DHT22;8503;52.472;13.344;2023-08-31T03:02:50;13.97;90.37
16771;DHT22;8503;52.472;13.344;2023-08-31T03:03:33;13.95;90.31
16771;DHT22;8503;52.472;13.344;2023-08-31T03:04:16;13.96;90.29
16771;DHT22;8503;52.472;13.344;2023-08-31T03:05:00;13.94;90.19
16771;DHT22;8503;52.472;13.344;2023-08-31T03:05:43;13.93;90.28
16771;DHT22;8503;52.472;13.344;2023-08-31T03:06:27;13.93;90.54
16771;DHT22;8503;52.472;13.344;2023-08-31T03:07:11;13.92;90.64
16771;DHT22;8503;52.472;13.344;2023-08-31T03:07:56;13.93;90.82
16771;DHT22;8503;52.472;13.344;2023-08-31T03:08:39;13.91;90.79
16771;DHT22;8503;52.472;13.344;2023-08-31T03:09:23;13.90;90.59
16771;DHT22;8503;52.472;13.344;2023-08-31T03:10:07;13.89;90.43
16771;DHT22;8503;52.472;13.344;2023-08-31T03:10:51;13.91;90.47
16771;DHT22;8503;52.472;13.344;2023-08-31T03:11:35;13.84;90.39
16771;DHT22;8503;52.472;13.344;2023-08-31T03:12:18;13.81;90.57
16771;DHT22;8503;52.472;13.344;2023-08-31T03:13:22;13.88;90.42
16771;DHT22;8503;52.472;13.344;2023-08-31T03:14:05;13.86;91.19
16771;DHT22;8503;52.472;13.344;2023-08-31T03:14:48;13.88;90.90
16771;DHT22;8503;52.472;13.344;2023-08-31T03:15:33;13.85;91.06
16771;DHT22;8503;52.472;13.344;2023-08-31T03:16:16;13.84;91.05
16771;DHT22;8503;52.472;13.344;2023-08-31T03:16:59;13.85;91.16
16771;DHT22;8503;52.472;13.344;2023-08-31T03:17:43;13.83;90.78
16771;DHT22;8503;52.472;13.344;2023-08-31T03:18:25;13.80;91.06
16771;DHT22;8503;52.472;13.344;2023-08-31T03:19:09;13.81;90.82
16771;DHT22;8503;52.472;13.344;2023-08-31T03:19:53;13.79;90.89
16771;DHT22;8503;52.472;13.344;2023-08-31T03:20:35;13.81;91.17
16771;DHT22;8503;52.472;13.344;2023-08-31T03:21:18;13.79;91.03
16771;DHT22;8503;52.472;13.344;2023-08-31T03:22:02;13.79;90.98
16771;DHT22;8503;52.472;13.344;2023-08-31T03:22:45;13.82;90.88
16771;DHT22;8503;52.472;13.344;2023-08-31T03:23:29;13.85;90.74
16771;DHT22;8503;52.472;13.344;2023-08-31T03:24:13;13.82;91.02
16771;DHT22;8503;52.472;13.344;2023-08-31T03:24:55;13.83;90.89
16771;DHT22;8503;52.472;13.344;2023-08-31T03:25:38;13.84;90.86
16771;DHT22;8503;52.472;13.344;2023-08-31T03:26:23;13.85;91.10
16771;DHT22;8503;52.472;13.344;2023-08-31T03:27:07;13.85;90.67
16771;DHT22;8503;52.472;13.344;2023-08-31T03:27:50;13.85;91.13
16771;DHT22;8503;52.472;13.344;2023-08-31T03:28:34;13.82;90.92
16771;DHT22;8503;52.472;13.344;2023-08-31T03:29:17;13.82;91.08
16771;DHT22;8503;52.472;13.344;2023-08-31T03:30:00;13.82;90.97
16771;DHT22;8503;52.472;13.344;2023-08-31T03:30:44;13.80;90.79
16771;DHT22;8503;52.472;13.344;2023-08-31T03:31:27;13.81;91.15
16771;DHT22;8503;52.472;13.344;2023-08-31T03:32:11;13.81;91.15
16771;DHT22;8503;52.472;13.344;2023-08-31T03:32:55;13.83;90.95
16771;DHT22;8503;52.472;13.344;2023-08-31T03:33:38;13.82;91.12
16771;DHT22;8503;52.472;13.344;2023-08-31T03:34:21;13.83;91.48
16771;DHT22;8503;52.472;13.344;2023-08-31T03:35:05;13.83;91.37
16771;DHT22;8503;52.472;13.344;2023-08-31T03:35:49;13.85;91.01
16771;DHT22;8503;52.472;13.344;2023-08-31T03:36:31;13.83;91.08
16771;DHT22;8503;52.472;13.344;2023-08-31T03:37:15;13.83;90.92
16771;DHT22;8503;52.472;13.344;2023-08-31T03:37:58;13.84;91.11
16771;DHT22;8503;52.472;13.344;2023-08-31T03:38:41;13.86;90.97
16771;DHT22;8503;52.472;13.344;2023-08-31T03:39:25;13.83;91.00
16771;DHT22;8503;52.472;13.344;2023-08-31T03:40:08;13.81;91.08
16771;DHT22;8503;52.472;13.344;2023-08-31T03:40:55;13.81;91.07
16771;DHT22;8503;52.472;13.344;2023-08-31T03:41:40;13.81;90.92
16771;DHT22;8503;52.472;13.344;2023-08-31T03:42:23;13.80;91.02
16771;DHT22;8503;52.472;13.344;2023-08-31T03:43:06;13.81;91.11
16771;DHT22;8503;52.472;13.344;2023-08-31T03:43:49;13.79;91.24
16771;DHT22;8503;52.472;13.344;2023-08-31T03:44:32;13.81;91.52
16771;DHT22;8503;52.472;13.344;2023-08-31T03:45:15;13.81;91.45
16771;DHT22;8503;52.472;13.344;2023-08-31T03:46:00;13.82;90.99
16771;DHT22;8503;52.472;13.344;2023-08-31T03:46:44;13.82;90.87
16771;DHT22;8503;52.472;13.344;2023-08-31T03:47:26;13.82;91.18
16771;DHT22;8503;52.472;13.344;2023-08-31T03:48:10;13.83;91.37
16771;DHT22;8503;52.472;13.344;2023-08-31T03:48:53;13.83;91.49
16771;DHT22;8503;52.472;13.344;2023-08-31T03:49:36;13.83;91.52
16771;DHT22;8503;52.472;13.344;2023-08-31T03:50:20;13.85;91.26
16771;DHT22;8503;52.472;13.344;2023-08-31T03:51:02;13.86;91.17
16771;DHT22;8503;52.472;13.344;2023-08-31T03:51:45;13.85;91.65
16771;DHT22;8503;52.472;13.344;2023-08-31T03:52:29;13.83;91.63
16771;DHT22;8503;52.472;13.344;2023-08-31T03:53:12;13.85;91.93
16771;DHT22;8503;52.472;13.344;2023-08-31T03:53:55;13.86;92.08
16771;DHT22;8503;52.472;13.344;2023-08-31T03:54:39;13.84;92.01
16771;DHT22;8503;52.472;13.344;2023-08-31T03:55:22;13.85;91.90
16771;DHT22;8503;52.472;13.344;2023-08-31T03:56:04;13.84;92.04
16771;DHT22;8503;52.472;13.344;2023-08-31T03:56:49;13.88;91.85
16771;DHT22;8503;52.472;13.344;2023-08-31T03:57:32;13.88;92.09
16771;DHT22;8503;52.472;13.344;2023-08-31T03:58:15;13.86;92.60
16771;DHT22;8503;52.472;13.344;2023-08-31T03:58:58;13.86;92.40
16771;DHT22;8503;52.472;13.344;2023-08-31T03:59:45;13.84;92.53
16771;DHT22;8503;52.472;13.344;2023-08-31T04:00:28;13.84;92.37
16771;DHT22;8503;52.472;13.344;2023-08-31T04:01:11;13.84;92.27
16771;DHT22;8503;52.472;13.344;2023-08-31T04:01:56;13.84;92.24
16771;DHT22;8503;52.472;13.344;2023-08-31T04:02:42;13.81;92.54
16771;DHT22;8503;52.472;13.344;2023-08-31T04:03:25;13.82;92.63
16771;DHT22;8503;52.472;13.344;2023-08-31T04:04:09;13.80;92.95
16771;DHT22;8503;52.472;13.344;2023-08-31T04:04:52;13.76;92.37
16771;DHT22;8503;52.472;13.344;2023-08-31T04:05:35;13.74;92.69
16771;DHT22;8503;52.472;13.344;2023-08-31T04:06:19;13.74;92.74
16771;DHT22;8503;52.472;13.344;2023-08-31T04:07:02;13.77;92.79
16771;DHT22;8503;52.472;13.344;2023-08-31T04:07:45;13.79;93.24
16771;DHT22;8503;52.472;13.344;2023-08-31T04:08:28;13.79;93.38
16771;DHT22;8503;52.472;13.344;2023-08-31T04:09:11;13.83;93.15
16771;DHT22;8503;52.472;13.344;2023-08-31T04:09:54;13.82;93.14
16771;DHT22;8503;52.472;13.344;2023-08-31T04:10:38;13.81;92.69
16771;DHT22;8503;52.472;13.344;2023-08-31T04:11:20;13.82;92.77
16771;DHT22;8503;52.472;13.344;2023-08-31T04:12:05;13.86;92.77
16771;DHT22;8503;52.472;13.344;2023-08-31T04:12:48;13.86;92.92
16771;DHT22;8503;52.472;13.344;2023-08-31T04:13:32;13.88;92.73
16771;DHT22;8503;52.472;13.344;2023-08-31T04:14:15;13.90;92.60
16771;DHT22;8503;52.472;13.344;2023-08-31T04:14:59;13.92;92.75
16771;DHT22;8503;52.472;13.344;2023-08-31T04:15:46;13.94;92.82
16771;DHT22;8503;52.472;13.344;2023-08-31T04:16:29;13.92;92.65
16771;DHT22;8503;52.472;13.344;2023-08-31T04:17:13;13.94;93.05
16771;DHT22;8503;52.472;13.344;2023-08-31T04:17:57;13.95;92.78
16771;DHT22;8503;52.472;13.344;2023-08-31T04:18:40;13.96;92.43
16771;DHT22;8503;52.472;13.344;2023-08-31T04:19:23;13.97;92.56
16771;DHT22;8503;52.472;13.344;2023-08-31T04:20:07;13.96;92.27
16771;DHT22;8503;52.472;13.344;2023-08-31T04:20:51;13.95;92.38
16771;DHT22;8503;52.472;13.344;2023-08-31T04:21:35;13.94;92.35
16771;DHT22;8503;52.472;13.344;2023-08-31T04:22:19;13.94;92.24
16771;DHT22;8503;52.472;13.344;2023-08-31T04:23:02;13.94;92.46
16771;DHT22;8503;52.472;13.344;2023-08-31T04:23:45;13.90;92.18
16771;DHT22;8503;52.472;13.344;2023-08-31T04:24:29;13.89;92.75
16771;DHT22;8503;52.472;13.344;2023-08-31T04:25:12;13.88;92.55
16771;DHT22;8503;52.472;13.344;2023-08-31T04:25:55;13.86;92.85
16771;DHT22;8503;52.472;13.344;2023-08-31T04:26:39;13.88;93.32
16771;DHT22;8503;52.472;13.344;2023-08-31T04:27:23;13.84;93.50
16771;DHT22;8503;52.472;13.344;2023-08-31T04:28:07;13.86;93.43
16771;DHT22;8503;52.472;13.344;2023-08-31T04:28:51;13.86;93.27
16771;DHT22;8503;52.472;13.344;2023-08-31T04:29:33;13.88;93.23
16771;DHT22;8503;52.472;13.344;2023-08-31T04:30:16;13.86;93.40
16771;DHT22;8503;52.472;13.344;2023-08-31T04:31:00;13.85;93.61
16771;DHT22;8503;52.472;13.344;2023-08-31T04:31:43;13.86;93.92
16771;DHT22;8503;52.472;13.344;2023-08-31T04:32:26;13.84;93.62
16771;DHT22;8503;52.472;13.344;2023-08-31T04:33:09;13.84;93.44
16771;DHT22;8503;52.472;13.344;2023-08-31T04:33:53;13.84;93.66
16771;DHT22;8503;52.472;13.344;2023-08-31T04:34:36;13.84;93.58
16771;DHT22;8503;52.472;13.344;2023-08-31T04:35:19;13.85;93.30
16771;DHT22;8503;52.472;13.344;2023-08-31T04:36:03;13.83;93.41
16771;DHT22;8503;52.472;13.344;2023-08-31T04:36:46;13.81;93.14
16771;DHT22;8503;52.472;13.344;2023-08-31T04:37:29;13.81;93.41
16771;DHT22;8503;52.472;13.344;2023-08-31T04:38:13;13.79;93.81
16771;DHT22;8503;52.472;13.344;2023-08-31T04:38:56;13.80;93.95
16771;DHT22;8503;52.472;13.344;2023-08-31T04:39:40;13.81;94.51
16771;DHT22;8503;52.472;13.344;2023-08-31T04:40:22;13.77;93.91
16771;DHT22;8503;52.472;13.344;2023-08-31T04:41:06;13.76;93.91